sensor_id;sensor_type;location;lat;lon;timestamp;pressure;altitude;pressure_sealevel;temperature;humidity
6150;BME280;3106;42.670;23.318;2023-01-28T00:01:25;93754.16;;;0.62;100.00
6150;BME280;3106;42.670;23.318;2023-01-28T00:03:52;93752.91;;;0.59;100.00
6150;BME280;3106;42.670;23.318;2023-01-28T00:06:20;93758.69;;;0.70;100.00
6150;BME280;3106;42.670;23.318;2023-01-28T00:08:48;93762.22;;;0.65;100.00
6150;BME280;3106;42.670;23.318;2023-01-28T00:11:15;93766.59;;;0.70;100.00
6150;BME280;3106;42.670;23.318;2023-01-28T00:13:42;93764.38;;;0.63;100.00
6150;BME280;3106;42.670;23.318;2023-01-28T00:16:09;93779.25;;;0.68;100.00
6150;BME280;3106;42.670;23.318;2023-01-28T00:18:36;93782.56;;;0.73;100.00
6150;BME280;3106;42.670;23.318;2023-01-28T00:21:05;93785.56;;;0.80;100.00
6150;BME280;3106;42.670;23.318;2023-01-28T00:23:33;93784.00;;;0.79;100.00
6150;BME280;3106;42.670;23.318;2023-01-28T00:26:04;93783.53;;;0.77;100.00
6150;BME280;3106;42.670;23.318;2023-01-28T00:28:32;93785.97;;;0.74;100.00
6150;BME280;3106;42.670;23.318;2023-01-28T00:31:05;93769.53;;;0.68;100.00
6150;BME280;3106;42.670;23.318;2023-01-28T00:33:32;93776.91;;;0.80;100.00
6150;BME280;3106;42.670;23.318;2023-01-28T00:35:59;93781.25;;;0.84;100.00
6150;BME280;3106;42.670;23.318;2023-01-28T00:38:26;93789.94;;;0.85;100.00
6150;BME280;3106;42.670;23.318;2023-01-28T00:40:53;93795.09;;;0.90;100.00
6150;BME280;3106;42.670;23.318;2023-01-28T00:43:22;93797.03;;;0.84;100.00
6150;BME280;3106;42.670;23.318;2023-01-28T00:45:49;93786.34;;;0.81;100.00
6150;BME280;3106;42.670;23.318;2023-01-28T00:48:16;93797.72;;;0.90;100.00
6150;BME280;3106;42.670;23.318;2023-01-28T00:50:43;93781.69;;;0.78;100.00
6150;BME280;3106;42.670;23.318;2023-01-28T00:53:10;93803.47;;;0.92;100.00
6150;BME280;3106;42.670;23.318;2023-01-28T00:55:37;93800.16;;;0.86;100.00
6150;BME280;3106;42.670;23.318;2023-01-28T00:58:03;93807.56;;;0.84;100.00
6150;BME280;3106;42.670;23.318;2023-01-28T01:00:32;93783.41;;;0.82;100.00
6150;BME280;3106;42.670;23.318;2023-01-28T01:02:58;93806.88;;;0.92;100.00
6150;BME280;3106;42.670;23.318;2023-01-28T01:05:25;93795.19;;;0.85;100.00
6150;BME280;3106;42.670;23.318;2023-01-28T01:07:54;93797.16;;;0.79;100.00
6150;BME280;3106;42.670;23.318;2023-01-28T01:10:21;93798.44;;;0.82;100.00
6150;BME280;3106;42.670;23.318;2023-01-28T01:12:48;93795.78;;;0.82;100.00
6150;BME280;3106;42.670;23.318;2023-01-28T01:15:15;93798.34;;;0.73;100.00
6150;BME280;3106;42.670;23.318;2023-01-28T01:17:46;93788.09;;;0.72;100.00
6150;BME280;3106;42.670;23.318;2023-01-28T01:20:15;93790.66;;;0.77;100.00
6150;BME280;3106;42.670;23.318;2023-01-28T01:22:42;93804.88;;;0.76;100.00
6150;BME280;3106;42.670;23.318;2023-01-28T01:25:09;93805.28;;;0.69;100.00
6150;BME280;3106;42.670;23.318;2023-01-28T01:27:37;93807.31;;;0.72;100.00
6150;BME280;3106;42.670;23.318;2023-01-28T01:30:04;93798.47;;;0.68;100.00
6150;BME280;3106;42.670;23.318;2023-01-28T01:32:33;93804.09;;;0.75;100.00
6150;BME280;3106;42.670;23.318;2023-01-28T01:35:02;93799.41;;;0.72;100.00
6150;BME280;3106;42.670;23.318;2023-01-28T01:37:30;93810.13;;;0.76;100.00
6150;BME280;3106;42.670;23.318;2023-01-28T01:39:57;93800.78;;;0.70;100.00
6150;BME280;3106;42.670;23.318;2023-01-28T01:42:24;93807.78;;;0.74;100.00
6150;BME280;3106;42.670;23.318;2023-01-28T01:44:55;93786.19;;;0.64;100.00
6150;BME280;3106;42.670;23.318;2023-01-28T01:47:25;93791.44;;;0.64;100.00
6150;BME280;3106;42.670;23.318;2023-01-28T01:49:54;93797.59;;;0.59;100.00
6150;BME280;3106;42.670;23.318;2023-01-28T01:52:25;93805.28;;;0.69;100.00
6150;BME280;3106;42.670;23.318;2023-01-28T01:54:55;93814.81;;;0.65;100.00
6150;BME280;3106;42.670;23.318;2023-01-28T01:57:26;93762.09;;;0.35;100.00
6150;BME280;3106;42.670;23.318;2023-01-28T01:59:55;93814.53;;;0.67;100.00
6150;BME280;3106;42.670;23.318;2023-01-28T02:02:29;93801.09;;;0.55;100.00
6150;BME280;3106;42.670;23.318;2023-01-28T02:04:56;93806.56;;;0.58;100.00
6150;BME280;3106;42.670;23.318;2023-01-28T02:07:25;93821.75;;;0.61;100.00
6150;BME280;3106;42.670;23.318;2023-01-28T02:09:52;93822.34;;;0.58;100.00
6150;BME280;3106;42.670;23.318;2023-01-28T02:12:23;93777.69;;;0.31;100.00
6150;BME280;3106;42.670;23.318;2023-01-28T02:14:54;93818.34;;;0.61;100.00
6150;BME280;3106;42.670;23.318;2023-01-28T02:17:23;93817.97;;;0.54;100.00
6150;BME280;3106;42.670;23.318;2023-01-28T02:19:53;93807.25;;;0.50;100.00
6150;BME280;3106;42.670;23.318;2023-01-28T02:23:00;93832.38;;;0.56;100.00
6150;BME280;3106;42.670;23.318;2023-01-28T02:25:40;93823.59;;;0.61;100.00
6150;BME280;3106;42.670;23.318;2023-01-28T02:28:22;93825.75;;;0.59;100.00
6150;BME280;3106;42.670;23.318;2023-01-28T02:30:52;93832.56;;;0.60;100.00
6150;BME280;3106;42.670;23.318;2023-01-28T02:33:28;93833.03;;;0.62;100.00
6150;BME280;3106;42.670;23.318;2023-01-28T02:36:02;93825.47;;;0.60;100.00
6150;BME280;3106;42.670;23.318;2023-01-28T02:38:37;93825.56;;;0.55;100.00
6150;BME280;3106;42.670;23.318;2023-01-28T02:41:08;93829.25;;;0.54;100.00
6150;BME280;3106;42.670;23.318;2023-01-28T02:43:39;93822.94;;;0.55;100.00
6150;BME280;3106;42.670;23.318;2023-01-28T02:46:14;93826.22;;;0.61;100.00
6150;BME280;3106;42.670;23.318;2023-01-28T02:49:02;93827.50;;;0.63;100.00
6150;BME280;3106;42.670;23.318;2023-01-28T02:51:44;93829.84;;;0.51;100.00
6150;BME280;3106;42.670;23.318;2023-01-28T02:54:22;93827.88;;;0.57;100.00
6150;BME280;3106;42.670;23.318;2023-01-28T02:56:57;93829.44;;;0.58;100.00
6150;BME280;3106;42.670;23.318;2023-01-28T02:59:29;93825.38;;;0.52;100.00
6150;BME280;3106;42.670;23.318;2023-01-28T03:02:09;93833.34;;;0.60;100.00
6150;BME280;3106;42.670;23.318;2023-01-28T03:04:42;93834.22;;;0.56;100.00
6150;BME280;3106;42.670;23.318;2023-01-28T03:07:11;93841.41;;;0.50;100.00
6150;BME280;3106;42.670;23.318;2023-01-28T03:09:41;93842.38;;;0.54;100.00
6150;BME280;3106;42.670;23.318;2023-01-28T03:12:11;93838.78;;;0.50;100.00
6150;BME280;3106;42.670;23.318;2023-01-28T03:15:00;93840.56;;;0.55;100.00
6150;BME280;3106;42.670;23.318;2023-01-28T03:17:48;93808.84;;;0.38;100.00
6150;BME280;3106;42.670;23.318;2023-01-28T03:20:37;93834.22;;;0.56;100.00
6150;BME280;3106;42.670;23.318;2023-01-28T03:23:27;93843.88;;;0.60;100.00
6150;BME280;3106;42.670;23.318;2023-01-28T03:26:14;93836.25;;;0.59;100.00
6150;BME280;3106;42.670;23.318;2023-01-28T03:29:05;93852.25;;;0.49;100.00
6150;BME280;3106;42.670;23.318;2023-01-28T03:31:53;93847.16;;;0.52;100.00
6150;BME280;3106;42.670;23.318;2023-01-28T03:34:38;93846.28;;;0.57;100.00
6150;BME280;3106;42.670;23.318;2023-01-28T03:37:23;93847.16;;;0.52;100.00
6150;BME280;3106;42.670;23.318;2023-01-28T03:39:51;93848.81;;;0.48;100.00
6150;BME280;3106;42.670;23.318;2023-01-28T03:42:18;93855.75;;;0.44;100.00
6150;BME280;3106;42.670;23.318;2023-01-28T03:44:45;93859.81;;;0.50;100.00
6150;BME280;3106;42.670;23.318;2023-01-28T03:47:19;93836.56;;;0.44;100.00
6150;BME280;3106;42.670;23.318;2023-01-28T03:49:48;93855.06;;;0.52;100.00
6150;BME280;3106;42.670;23.318;2023-01-28T03:52:16;93856.13;;;0.51;100.00
6150;BME280;3106;42.670;23.318;2023-01-28T03:54:43;93863.94;;;0.56;100.00
6150;BME280;3106;42.670;23.318;2023-01-28T03:57:12;93855.53;;;0.54;100.00
6150;BME280;3106;42.670;23.318;2023-01-28T03:59:39;93853.81;;;0.50;100.00
6150;BME280;3106;42.670;23.318;2023-01-28T04:02:07;93868.69;;;0.54;100.00
6150;BME280;3106;42.670;23.318;2023-01-28T04:04:37;93861.22;;;0.48;100.00
6150;BME280;3106;42.670;23.318;2023-01-28T04:07:04;93866.25;;;0.58;100.00
6150;BME280;3106;42.670;23.318;2023-01-28T04:09:33;93861.22;;;0.48;100.00
6150;BME280;3106;42.670;23.318;2023-01-28T04:12:00;93872.38;;;0.53;100.00
6150;BME280;3106;42.670;23.318;2023-01-28T04:14:27;93867.34;;;0.57;100.00
6150;BME280;3106;42.670;23.318;2023-01-28T04:16:54;93873.19;;;0.54;100.00
6150;BME280;3106;42.670;23.318;2023-01-28T04:19:21;93881.44;;;0.47;100.00
6150;BME280;3106;42.670;23.318;2023-01-28T04:21:50;93874.53;;;0.51;100.00
6150;BME280;3106;42.670;23.318;2023-01-28T04:24:18;93878.91;;;0.42;100.00
6150;BME280;3106;42.670;23.318;2023-01-28T04:26:45;93876.28;;;0.42;100.00
6150;BME280;3106;42.670;23.318;2023-01-28T04:29:12;93878.16;;;0.42;100.00
6150;BME280;3106;42.670;23.318;2023-01-28T04:31:38;93868.88;;;0.44;100.00
6150;BME280;3106;42.670;23.318;2023-01-28T04:34:05;93872.91;;;0.42;100.00
6150;BME280;3106;42.670;23.318;2023-01-28T04:36:33;93887.13;;;0.41;100.00
6150;BME280;3106;42.670;23.318;2023-01-28T04:39:01;93888.56;;;0.47;100.00
6150;BME280;3106;42.670;23.318;2023-01-28T04:41:28;93891.69;;;0.35;100.00
6150;BME280;3106;42.670;23.318;2023-01-28T04:43:55;93894.09;;;0.32;100.00
6150;BME280;3106;42.670;23.318;2023-01-28T04:46:22;93896.44;;;0.33;100.00
6150;BME280;3106;42.670;23.318;2023-01-28T04:48:49;93901.91;;;0.37;100.00
6150;BME280;3106;42.670;23.318;2023-01-28T04:51:15;93897.03;;;0.30;100.00
6150;BME280;3106;42.670;23.318;2023-01-28T04:53:42;93910.66;;;0.32;100.00
6150;BME280;3106;42.670;23.318;2023-01-28T04:56:10;93898.19;;;0.24;100.00
6150;BME280;3106;42.670;23.318;2023-01-28T04:58:38;93908.53;;;0.34;100.00
6150;BME280;3106;42.670;23.318;2023-01-28T05:01:05;93903.25;;;0.34;100.00
6150;BME280;3106;42.670;23.318;2023-01-28T05:03:34;93865.09;;;0.10;100.00
6150;BME280;3106;42.670;23.318;2023-01-28T05:06:00;93915.91;;;0.32;100.00
6150;BME280;3106;42.670;23.318;2023-01-28T05:08:30;93915.44;;;0.30;100.00
6150;BME280;3106;42.670;23.318;2023-01-28T05:10:57;93902.66;;;0.24;100.00
6150;BME280;3106;42.670;23.318;2023-01-28T05:13:25;93911.94;;;0.21;100.00
6150;BME280;3106;42.670;23.318;2023-01-28T05:15:52;93935.38;;;0.31;100.00
6150;BME280;3106;42.670;23.318;2023-01-28T05:18:19;93921.28;;;0.27;100.00
6150;BME280;3106;42.670;23.318;2023-01-28T05:20:47;93934.22;;;0.37;100.00
6150;BME280;3106;42.670;23.318;2023-01-28T05:23:16;93917.66;;;0.23;100.00
6150;BME280;3106;42.670;23.318;2023-01-28T05:25:43;93929.16;;;0.27;100.00
6150;BME280;3106;42.670;23.318;2023-01-28T05:28:11;93930.72;;;0.28;100.00
6150;BME280;3106;42.670;23.318;2023-01-28T05:30:39;93925.16;;;0.30;100.00
6150;BME280;3106;42.670;23.318;2023-01-28T05:33:06;93932.28;;;0.29;100.00
6150;BME280;3106;42.670;23.318;2023-01-28T05:35:36;93936.28;;;0.40;100.00
6150;BME280;3106;42.670;23.318;2023-01-28T05:38:04;93926.63;;;0.36;100.00
6150;BME280;3106;42.670;23.318;2023-01-28T05:40:31;93933.84;;;0.44;100.00
6150;BME280;3106;42.670;23.318;2023-01-28T05:42:57;93936.84;;;0.37;100.00
6150;BME280;3106;42.670;23.318;2023-01-28T05:45:24;93943.09;;;0.41;100.00
6150;BME280;3106;42.670;23.318;2023-01-28T05:47:53;93941.03;;;0.38;100.00
6150;BME280;3106;42.670;23.318;2023-01-28T05:50:19;93922.50;;;0.16;100.00
6150;BME280;3106;42.670;23.318;2023-01-28T05:52:46;93941.81;;;0.25;100.00
6150;BME280;3106;42.670;23.318;2023-01-28T05:55:13;93929.84;;;0.19;100.00
6150;BME280;3106;42.670;23.318;2023-01-28T05:57:40;93942.38;;;0.36;100.00
6150;BME280;3106;42.670;23.318;2023-01-28T06:00:10;93913.84;;;0.16;100.00
6150;BME280;3106;42.670;23.318;2023-01-28T06:02:37;93952.91;;;0.36;100.00
6150;BME280;3106;42.670;23.318;2023-01-28T06:05:06;93962.44;;;0.32;100.00
6150;BME280;3106;42.670;23.318;2023-01-28T06:07:33;93967.31;;;0.38;100.00
6150;BME280;3106;42.670;23.318;2023-01-28T06:10:00;93964.41;;;0.26;100.00
6150;BME280;3106;42.670;23.318;2023-01-28T06:12:27;93982.13;;;0.34;100.00
6150;BME280;3106;42.670;23.318;2023-01-28T06:14:54;93979.69;;;0.24;100.00
6150;BME280;3106;42.670;23.318;2023-01-28T06:17:20;93975.28;;;0.20;100.00
6150;BME280;3106;42.670;23.318;2023-01-28T06:19:47;93989.53;;;0.32;100.00
6150;BME280;3106;42.670;23.318;2023-01-28T06:22:15;93981.16;;;0.30;100.00
6150;BME280;3106;42.670;23.318;2023-01-28T06:24:42;93995.28;;;0.34;100.00
6150;BME280;3106;42.670;23.318;2023-01-28T06:27:09;93992.44;;;0.31;100.00
6150;BME280;3106;42.670;23.318;2023-01-28T06:29:36;93997.41;;;0.32;100.00
6150;BME280;3106;42.670;23.318;2023-01-28T06:32:03;94000.81;;;0.33;100.00
6150;BME280;3106;42.670;23.318;2023-01-28T06:34:32;93993.84;;;0.42;100.00
6150;BME280;3106;42.670;23.318;2023-01-28T06:36:59;94002.13;;;0.49;100.00
6150;BME280;3106;42.670;23.318;2023-01-28T06:39:27;94012.41;;;0.45;100.00
6150;BME280;3106;42.670;23.318;2023-01-28T06:41:56;94017.88;;;0.49;100.00
6150;BME280;3106;42.670;23.318;2023-01-28T06:44:23;94012.03;;;0.38;100.00
6150;BME280;3106;42.670;23.318;2023-01-28T06:46:50;94013.59;;;0.39;100.00
6150;BME280;3106;42.670;23.318;2023-01-28T06:49:17;94028.59;;;0.39;100.00
6150;BME280;3106;42.670;23.318;2023-01-28T06:51:44;94013.88;;;0.38;100.00
6150;BME280;3106;42.670;23.318;2023-01-28T06:54:11;94039.47;;;0.32;100.00
6150;BME280;3106;42.670;23.318;2023-01-28T06:56:39;94020.28;;;0.32;100.00
6150;BME280;3106;42.670;23.318;2023-01-28T06:59:06;94035.09;;;0.41;100.00
6150;BME280;3106;42.670;23.318;2023-01-28T07:01:33;94036.56;;;0.47;100.00
6150;BME280;3106;42.670;23.318;2023-01-28T07:04:00;93996.16;;;0.11;100.00
6150;BME280;3106;42.670;23.318;2023-01-28T07:06:27;94038.94;;;0.49;100.00
6150;BME280;3106;42.670;23.318;2023-01-28T07:08:54;94026.72;;;0.39;100.00
6150;BME280;3106;42.670;23.318;2023-01-28T07:11:21;94031.81;;;0.49;100.00
6150;BME280;3106;42.670;23.318;2023-01-28T07:13:49;94049.75;;;0.61;100.00
6150;BME280;3106;42.670;23.318;2023-01-28T07:16:16;94053.91;;;0.48;100.00
6150;BME280;3106;42.670;23.318;2023-01-28T07:18:43;94047.41;;;0.46;100.00
6150;BME280;3106;42.670;23.318;2023-01-28T07:21:10;94068.84;;;0.53;100.00
6150;BME280;3106;42.670;23.318;2023-01-28T07:23:40;94057.94;;;0.59;100.00
6150;BME280;3106;42.670;23.318;2023-01-28T07:26:09;94050.81;;;0.60;100.00
6150;BME280;3106;42.670;23.318;2023-01-28T07:28:36;94068.25;;;0.56;100.00
6150;BME280;3106;42.670;23.318;2023-01-28T07:31:04;94062.31;;;0.64;100.00
6150;BME280;3106;42.670;23.318;2023-01-28T07:33:31;94066.59;;;0.60;100.00
6150;BME280;3106;42.670;23.318;2023-01-28T07:35:58;94079.78;;;0.73;100.00
6150;BME280;3106;42.670;23.318;2023-01-28T07:38:24;94078.34;;;0.81;100.00
6150;BME280;3106;42.670;23.318;2023-01-28T07:40:51;94085.84;;;0.87;100.00
6150;BME280;3106;42.670;23.318;2023-01-28T07:43:18;94083.72;;;0.76;100.00
6150;BME280;3106;42.670;23.318;2023-01-28T07:45:45;94085.25;;;0.77;100.00
6150;BME280;3106;42.670;23.318;2023-01-28T07:48:13;94075.00;;;0.75;100.00
6150;BME280;3106;42.670;23.318;2023-01-28T07:50:40;94061.66;;;0.58;100.00
6150;BME280;3106;42.670;23.318;2023-01-28T07:53:08;94086.81;;;0.78;100.00
6150;BME280;3106;42.670;23.318;2023-01-28T07:55:36;94092.59;;;0.93;100.00
6150;BME280;3106;42.670;23.318;2023-01-28T07:58:05;94094.75;;;0.91;100.00
6150;BME280;3106;42.670;23.318;2023-01-28T08:00:33;94095.16;;;0.98;100.00
6150;BME280;3106;42.670;23.318;2023-01-28T08:03:02;94089.69;;;1.08;100.00
6150;BME280;3106;42.670;23.318;2023-01-28T08:05:36;94102.63;;;1.05;100.00
6150;BME280;3106;42.670;23.318;2023-01-28T08:08:06;94102.56;;;1.10;100.00
6150;BME280;3106;42.670;23.318;2023-01-28T08:10:33;94104.00;;;1.02;100.00
6150;BME280;3106;42.670;23.318;2023-01-28T08:13:00;94105.75;;;1.07;100.00
6150;BME280;3106;42.670;23.318;2023-01-28T08:15:27;94106.56;;;1.07;100.00
6150;BME280;3106;42.670;23.318;2023-01-28T08:17:55;94098.16;;;1.05;100.00
6150;BME280;3106;42.670;23.318;2023-01-28T08:20:24;94113.00;;;1.15;100.00
6150;BME280;3106;42.670;23.318;2023-01-28T08:22:53;94112.09;;;1.06;100.00
6150;BME280;3106;42.670;23.318;2023-01-28T08:25:20;94109.69;;;1.09;100.00
6150;BME280;3106;42.670;23.318;2023-01-28T08:27:47;94113.88;;;1.10;100.00
6150;BME280;3106;42.670;23.318;2023-01-28T08:30:14;94115.72;;;1.10;100.00
6150;BME280;3106;42.670;23.318;2023-01-28T08:32:40;94120.59;;;1.16;100.00
6150;BME280;3106;42.670;23.318;2023-01-28T08:35:07;94121.78;;;1.24;100.00
6150;BME280;3106;42.670;23.318;2023-01-28T08:37:34;94119.25;;;1.32;100.00
6150;BME280;3106;42.670;23.318;2023-01-28T08:40:03;94121.38;;;1.43;100.00
6150;BME280;3106;42.670;23.318;2023-01-28T08:42:30;94121.78;;;1.37;100.00
6150;BME280;3106;42.670;23.318;2023-01-28T08:44:57;94126.47;;;1.40;100.00
6150;BME280;3106;42.670;23.318;2023-01-28T08:47:24;94109.50;;;1.33;100.00
6150;BME280;3106;42.670;23.318;2023-01-28T08:49:51;94120.63;;;1.43;100.00
6150;BME280;3106;42.670;23.318;2023-01-28T08:52:18;94117.88;;;1.75;100.00
6150;BME280;3106;42.670;23.318;2023-01-28T08:54:44;94114.91;;;1.90;100.00
6150;BME280;3106;42.670;23.318;2023-01-28T08:57:15;94127.81;;;1.91;99.18
6150;BME280;3106;42.670;23.318;2023-01-28T08:59:42;94114.94;;;1.76;100.00
6150;BME280;3106;42.670;23.318;2023-01-28T09:02:12;94124.50;;;1.86;99.38
6150;BME280;3106;42.670;23.318;2023-01-28T09:04:40;94133.09;;;1.91;99.60
6150;BME280;3106;42.670;23.318;2023-01-28T09:07:07;94127.44;;;1.71;99.43
6150;BME280;3106;42.670;23.318;2023-01-28T09:09:34;94115.16;;;1.53;99.69
6150;BME280;3106;42.670;23.318;2023-01-28T09:12:01;94124.13;;;1.65;99.68
6150;BME280;3106;42.670;23.318;2023-01-28T09:14:29;94123.63;;;1.77;99.82
6150;BME280;3106;42.670;23.318;2023-01-28T09:16:56;94115.75;;;1.63;99.77
6150;BME280;3106;42.670;23.318;2023-01-28T09:19:23;94111.53;;;1.62;99.70
6150;BME280;3106;42.670;23.318;2023-01-28T09:21:50;94098.97;;;1.46;99.54
6150;BME280;3106;42.670;23.318;2023-01-28T09:24:17;94139.06;;;1.70;100.00
6150;BME280;3106;42.670;23.318;2023-01-28T09:26:44;94139.16;;;1.65;100.00
6150;BME280;3106;42.670;23.318;2023-01-28T09:29:10;94126.16;;;1.68;100.00
6150;BME280;3106;42.670;23.318;2023-01-28T09:31:39;94103.53;;;1.54;100.00
6150;BME280;3106;42.670;23.318;2023-01-28T09:34:06;94130.56;;;1.59;100.00
6150;BME280;3106;42.670;23.318;2023-01-28T09:36:32;94125.31;;;1.59;100.00
6150;BME280;3106;42.670;23.318;2023-01-28T09:39:00;94130.69;;;1.54;100.00
6150;BME280;3106;42.670;23.318;2023-01-28T09:41:28;94135.47;;;1.66;100.00
6150;BME280;3106;42.670;23.318;2023-01-28T09:44:05;94084.72;;;1.34;100.00
6150;BME280;3106;42.670;23.318;2023-01-28T09:46:42;94141.09;;;1.73;100.00
6150;BME280;3106;42.670;23.318;2023-01-28T09:49:16;94126.56;;;1.62;100.00
6150;BME280;3106;42.670;23.318;2023-01-28T09:51:48;94126.28;;;1.77;100.00
6150;BME280;3106;42.670;23.318;2023-01-28T09:54:24;94136.31;;;1.75;100.00
6150;BME280;3106;42.670;23.318;2023-01-28T09:56:58;94134.94;;;1.77;100.00
6150;BME280;3106;42.670;23.318;2023-01-28T09:59:32;94099.94;;;1.50;100.00
6150;BME280;3106;42.670;23.318;2023-01-28T10:08:45;94120.91;;;1.42;100.00
6150;BME280;3106;42.670;23.318;2023-01-28T10:11:23;94124.34;;;1.55;100.00
6150;BME280;3106;42.670;23.318;2023-01-28T10:14:01;94125.50;;;1.49;100.00
6150;BME280;3106;42.670;23.318;2023-01-28T10:16:36;94123.91;;;1.62;100.00
6150;BME280;3106;42.670;23.318;2023-01-28T10:19:06;94114.56;;;1.56;100.00
6150;BME280;3106;42.670;23.318;2023-01-28T10:21:40;94109.13;;;1.52;100.00
6150;BME280;3106;42.670;23.318;2023-01-28T10:24:24;94119.84;;;1.56;100.00
6150;BME280;3106;42.670;23.318;2023-01-28T10:26:55;94116.22;;;1.52;100.00
6150;BME280;3106;42.670;23.318;2023-01-28T10:29:24;94116.59;;;1.59;100.00
6150;BME280;3106;42.670;23.318;2023-01-28T10:31:53;94117.69;;;1.58;100.00
6150;BME280;3106;42.670;23.318;2023-01-28T10:34:21;94124.91;;;1.52;100.00
6150;BME280;3106;42.670;23.318;2023-01-28T10:36:49;94111.06;;;1.47;100.00
6150;BME280;3106;42.670;23.318;2023-01-28T10:39:23;94115.75;;;1.50;100.00
6150;BME280;3106;42.670;23.318;2023-01-28T10:41:51;94118.66;;;1.62;100.00
6150;BME280;3106;42.670;23.318;2023-01-28T10:44:25;94116.59;;;1.59;100.00
6150;BME280;3106;42.670;23.318;2023-01-28T10:46:58;94122.78;;;1.68;100.00
6150;BME280;3106;42.670;23.318;2023-01-28T10:49:26;94118.25;;;1.82;100.00
6150;BME280;3106;42.670;23.318;2023-01-28T10:51:53;94120.03;;;1.86;100.00
6150;BME280;3106;42.670;23.318;2023-01-28T10:54:26;94122.94;;;1.85;100.00
6150;BME280;3106;42.670;23.318;2023-01-28T10:56:54;94116.47;;;1.91;100.00
6150;BME280;3106;42.670;23.318;2023-01-28T10:59:25;94117.06;;;1.88;100.00
6150;BME280;3106;42.670;23.318;2023-01-28T11:01:54;94106.13;;;1.94;100.00
6150;BME280;3106;42.670;23.318;2023-01-28T11:04:27;94124.28;;;1.96;99.88
6150;BME280;3106;42.670;23.318;2023-01-28T11:07:02;94120.38;;;2.07;100.00
6150;BME280;3106;42.670;23.318;2023-01-28T11:09:35;94122.22;;;2.06;99.73
6150;BME280;3106;42.670;23.318;2023-01-28T11:12:10;94124.19;;;2.01;100.00
6150;BME280;3106;42.670;23.318;2023-01-28T11:14:48;94122.38;;;2.23;100.00
6150;BME280;3106;42.670;23.318;2023-01-28T11:17:17;94090.53;;;2.20;98.85
6150;BME280;3106;42.670;23.318;2023-01-28T11:19:46;94089.09;;;2.14;97.51
6150;BME280;3106;42.670;23.318;2023-01-28T11:22:26;94107.72;;;2.17;98.16
6150;BME280;3106;42.670;23.318;2023-01-28T11:25:01;94106.47;;;2.15;98.62
6150;BME280;3106;42.670;23.318;2023-01-28T11:27:29;94089.34;;;2.04;98.62
6150;BME280;3106;42.670;23.318;2023-01-28T11:29:59;94103.97;;;2.10;98.46
6150;BME280;3106;42.670;23.318;2023-01-28T11:32:28;94112.84;;;2.14;98.31
6150;BME280;3106;42.670;23.318;2023-01-28T11:34:56;94089.81;;;2.06;98.32
6150;BME280;3106;42.670;23.318;2023-01-28T11:37:25;94100.25;;;2.33;98.46
6150;BME280;3106;42.670;23.318;2023-01-28T11:40:13;94112.41;;;2.56;98.75
6150;BME280;3106;42.670;23.318;2023-01-28T11:42:44;94104.28;;;2.52;97.76
6150;BME280;3106;42.670;23.318;2023-01-28T11:45:14;94095.00;;;2.77;96.73
6150;BME280;3106;42.670;23.318;2023-01-28T11:47:56;94095.50;;;2.79;95.74
6150;BME280;3106;42.670;23.318;2023-01-28T11:50:35;94097.13;;;2.66;95.01
6150;BME280;3106;42.670;23.318;2023-01-28T11:53:18;94099.03;;;2.74;94.42
6150;BME280;3106;42.670;23.318;2023-01-28T11:56:02;94101.28;;;2.45;95.87
6150;BME280;3106;42.670;23.318;2023-01-28T11:58:38;94086.66;;;2.39;95.67
6150;BME280;3106;42.670;23.318;2023-01-28T12:01:12;94085.34;;;2.50;96.13
6150;BME280;3106;42.670;23.318;2023-01-28T12:07:03;94092.66;;;2.53;94.38
6150;BME280;3106;42.670;23.318;2023-01-28T12:09:39;94104.84;;;2.41;95.14
6150;BME280;3106;42.670;23.318;2023-01-28T12:12:25;94110.25;;;2.58;95.85
6150;BME280;3106;42.670;23.318;2023-01-28T12:21:44;94104.59;;;2.51;95.05
6150;BME280;3106;42.670;23.318;2023-01-28T12:24:25;94108.00;;;2.51;94.88
6150;BME280;3106;42.670;23.318;2023-01-28T12:27:03;94097.19;;;2.75;95.19
6150;BME280;3106;42.670;23.318;2023-01-28T12:29:43;94104.50;;;2.78;94.64
6150;BME280;3106;42.670;23.318;2023-01-28T12:32:38;94105.59;;;2.85;94.18
6150;BME280;3106;42.670;23.318;2023-01-28T12:35:34;94115.41;;;2.85;94.16
6150;BME280;3106;42.670;23.318;2023-01-28T12:38:14;94109.28;;;2.76;94.19
6150;BME280;3106;42.670;23.318;2023-01-28T12:40:48;94122.19;;;2.55;94.49
6150;BME280;3106;42.670;23.318;2023-01-28T12:43:21;94112.13;;;2.57;95.42
6150;BME280;3106;42.670;23.318;2023-01-28T12:45:55;94119.44;;;2.60;94.78
6150;BME280;3106;42.670;23.318;2023-01-28T12:48:28;94115.91;;;2.51;94.46
6150;BME280;3106;42.670;23.318;2023-01-28T12:51:06;94120.66;;;2.63;95.15
6150;BME280;3106;42.670;23.318;2023-01-28T12:53:42;94122.81;;;2.61;95.60
6150;BME280;3106;42.670;23.318;2023-01-28T12:56:17;94134.75;;;2.80;95.22
6150;BME280;3106;42.670;23.318;2023-01-28T12:58:53;94121.09;;;2.78;94.96
6150;BME280;3106;42.670;23.318;2023-01-28T13:01:27;94139.28;;;2.80;95.11
6150;BME280;3106;42.670;23.318;2023-01-28T13:04:03;94138.69;;;2.83;95.51
6150;BME280;3106;42.670;23.318;2023-01-28T13:06:45;94133.88;;;2.85;94.49
6150;BME280;3106;42.670;23.318;2023-01-28T13:09:16;94131.84;;;2.82;94.51
6150;BME280;3106;42.670;23.318;2023-01-28T13:11:47;94139.31;;;2.88;94.11
6150;BME280;3106;42.670;23.318;2023-01-28T13:14:15;94142.69;;;2.58;94.47
6150;BME280;3106;42.670;23.318;2023-01-28T13:16:44;94142.03;;;2.75;95.26
6150;BME280;3106;42.670;23.318;2023-01-28T13:19:21;94121.19;;;2.51;95.35
6150;BME280;3106;42.670;23.318;2023-01-28T13:21:49;94155.03;;;2.71;94.91
6150;BME280;3106;42.670;23.318;2023-01-28T13:24:29;94152.16;;;2.81;95.13
6150;BME280;3106;42.670;23.318;2023-01-28T13:26:57;94141.72;;;2.76;94.22
6150;BME280;3106;42.670;23.318;2023-01-28T13:29:31;94129.13;;;2.51;95.24
6150;BME280;3106;42.670;23.318;2023-01-28T13:32:33;94157.59;;;2.63;95.34
6150;BME280;3106;42.670;23.318;2023-01-28T13:35:05;94158.31;;;2.55;96.09
6150;BME280;3106;42.670;23.318;2023-01-28T13:37:35;94158.69;;;2.40;96.41
6150;BME280;3106;42.670;23.318;2023-01-28T13:40:16;94164.22;;;2.38;97.44
6150;BME280;3106;42.670;23.318;2023-01-28T13:42:57;94163.66;;;2.28;96.69
6150;BME280;3106;42.670;23.318;2023-01-28T13:45:25;94177.28;;;2.21;96.80
6150;BME280;3106;42.670;23.318;2023-01-28T13:47:57;94174.06;;;2.24;96.33